Time;durP1;ratioP1;P1;durP2;ratioP2;P2;SDS_P1;SDS_P2;PMS_P1;PMS_P2;Temp;Humidity;BMP_temperature;BMP_pressure;BME280_temperature;BME280_humidity;BME280_pressure;Samples;Min_cycle;Max_cycle;Signal;HPM_P1;HPM_P2
2022/01/31 00:00:57;;;;;;;13.23;4.93;;;;;;;5.05;87.57;101529.09;5040348;28;20324;-80
2022/01/31 00:03:23;;;;;;;12.65;4.47;;;;;;;5.07;87.66;101511.75;5058293;28;20367;-80
2022/01/31 00:05:48;;;;;;;16.00;5.75;;;;;;;5.03;88.29;101494.50;5060899;28;20083;-80
2022/01/31 00:08:22;;;;;;;18.05;5.68;;;;;;;5.04;88.08;101496.19;5041440;28;20104;-80
2022/01/31 00:10:48;;;;;;;19.80;7.50;;;;;;;5.05;88.34;101474.56;5058355;28;20053;-80
2022/01/31 00:13:20;;;;;;;17.23;5.20;;;;;;;5.05;88.38;101451.19;5057559;28;20048;-80
2022/01/31 00:15:52;;;;;;;14.73;6.82;;;;;;;5.02;88.89;101448.63;5040656;28;20108;-80
2022/01/31 00:18:18;;;;;;;18.13;7.45;;;;;;;5.03;88.95;101447.75;5056789;28;20247;-80
2022/01/31 00:20:43;;;;;;;15.63;5.80;;;;;;;5.05;88.77;101436.47;5064580;28;20087;-80
2022/01/31 00:23:09;;;;;;;13.55;7.18;;;;;;;5.04;88.99;101436.47;5056351;28;20131;-80
2022/01/31 00:25:34;;;;;;;22.35;7.53;;;;;;;5.05;89.24;101438.22;5057949;28;20037;-80
2022/01/31 00:28:00;;;;;;;16.85;8.30;;;;;;;5.04;89.52;101433.88;5064335;28;20056;-80
2022/01/31 00:30:25;;;;;;;18.65;8.23;;;;;;;5.04;89.24;101424.38;5059820;28;20347;-80
2022/01/31 00:32:51;;;;;;;17.42;8.32;;;;;;;4.96;90.12;101405.41;5042812;28;20052;-80
2022/01/31 00:35:16;;;;;;;16.52;7.63;;;;;;;4.96;90.14;101393.28;5079525;28;20032;-80
2022/01/31 00:37:42;;;;;;;12.68;7.00;;;;;;;4.98;90.05;101378.56;5060120;28;20054;-79
2022/01/31 00:40:09;;;;;;;12.82;6.95;;;;;;;4.98;90.22;101365.59;5060095;28;20123;-79
2022/01/31 00:42:35;;;;;;;16.13;6.18;;;;;;;4.97;90.61;101368.19;5059587;28;20036;-79
2022/01/31 00:45:13;;;;;;;15.23;6.15;;;;;;;4.92;90.83;101354.41;5042903;28;20343;-79
2022/01/31 00:47:43;;;;;;;10.60;4.78;;;;;;;4.92;91.19;101346.63;5081801;28;20031;-79
2022/01/31 00:50:11;;;;;;;15.32;5.50;;;;;;;4.93;91.19;101327.56;5079557;28;20097;-80
2022/01/31 00:52:38;;;;;;;13.32;4.55;;;;;;;4.92;91.58;101318.06;5080473;28;20288;-80
2022/01/31 00:55:05;;;;;;;14.07;5.05;;;;;;;4.94;91.44;101308.53;5079369;28;20047;-80
2022/01/31 00:57:31;;;;;;;13.00;5.00;;;;;;;4.93;91.78;101296.41;5097801;28;20385;-80
2022/01/31 00:59:56;;;;;;;17.20;5.50;;;;;;;4.92;92.03;101305.94;5072042;28;20032;-80
2022/01/31 01:02:23;;;;;;;12.88;5.00;;;;;;;4.93;92.02;101286.91;5077754;28;20068;-80
2022/01/31 01:04:49;;;;;;;12.60;4.80;;;;;;;4.92;92.38;101279.13;5042582;28;20142;-80
2022/01/31 01:07:15;;;;;;;11.60;3.85;;;;;;;4.93;92.37;101257.47;5042974;28;20259;-80
2022/01/31 01:09:42;;;;;;;11.48;3.42;;;;;;;4.98;92.09;101264.34;5082278;28;20040;-80
2022/01/31 01:12:13;;;;;;;14.02;4.15;;;;;;;4.98;92.59;101255.69;5079663;28;20331;-80
2022/01/31 01:14:39;;;;;;;10.15;3.78;;;;;;;4.95;93.20;101261.78;5072540;28;20350;-80
2022/01/31 01:17:04;;;;;;;11.77;4.10;;;;;;;4.96;93.45;101244.47;5059460;28;20048;-80
2022/01/31 01:19:30;;;;;;;10.35;3.65;;;;;;;4.96;93.58;101228.91;5060547;28;20028;-79
2022/01/31 01:21:55;;;;;;;10.13;4.22;;;;;;;4.95;93.88;101227.19;5095324;28;20077;-79
2022/01/31 01:24:20;;;;;;;10.48;3.75;;;;;;;4.93;94.31;101202.97;5097345;28;20051;-79
2022/01/31 01:26:47;;;;;;;10.57;3.28;;;;;;;4.96;94.82;101211.56;5097749;28;20040;-79
2022/01/31 01:29:13;;;;;;;11.23;3.17;;;;;;;4.96;95.34;101195.16;5067116;28;20362;-80
2022/01/31 01:31:39;;;;;;;8.98;2.92;;;;;;;5.00;95.82;101197.72;5077684;28;20035;-79
2022/01/31 01:34:04;;;;;;;11.07;2.67;;;;;;;5.06;95.90;101193.28;5059069;28;20040;-79
2022/01/31 01:36:31;;;;;;;11.48;3.58;;;;;;;5.12;95.88;101201.88;5059026;28;20130;-79
2022/01/31 01:38:57;;;;;;;10.77;3.38;;;;;;;5.18;96.34;101195.75;5057553;28;20358;-79
2022/01/31 01:41:22;;;;;;;12.75;2.90;;;;;;;5.23;96.60;101190.50;5097765;28;20032;-79
2022/01/31 01:43:48;;;;;;;12.82;3.08;;;;;;;5.27;96.50;101161.88;5062255;28;20404;-79
2022/01/31 01:46:13;;;;;;;20.55;4.35;;;;;;;5.32;96.73;101195.56;5058866;28;20032;-79
2022/01/31 01:48:39;;;;;;;25.42;3.92;;;;;;;5.42;96.61;101172.94;5064505;28;20036;-79
2022/01/31 01:51:05;;;;;;;18.75;4.38;;;;;;;5.48;96.86;101165.06;5042134;28;20228;-79
2022/01/31 01:53:30;;;;;;;20.42;4.05;;;;;;;5.53;96.59;101187.50;5042418;28;20382;-79
2022/01/31 01:55:56;;;;;;;22.48;3.67;;;;;;;5.60;96.14;101164.00;5066861;28;20283;-79
2022/01/31 01:58:23;;;;;;;23.10;3.70;;;;;;;5.69;95.62;101174.25;5097096;28;20036;-80
2022/01/31 02:01:01;;;;;;;23.20;3.65;;;;;;;5.72;95.48;101162.09;5078801;28;20215;-79
2022/01/31 02:03:28;;;;;;;18.57;4.47;;;;;;;5.77;94.86;101165.47;5097011;28;20043;-79
2022/01/31 02:05:54;;;;;;;14.52;3.28;;;;;;;5.86;94.16;101167.09;5096855;28;20662;-79
2022/01/31 02:08:20;;;;;;;18.45;3.55;;;;;;;5.89;93.86;101156.59;5062132;28;20064;-79
2022/01/31 02:10:46;;;;;;;20.17;3.40;;;;;;;5.92;93.38;101146.16;5095567;28;20059;-79
2022/01/31 02:13:14;;;;;;;19.27;3.33;;;;;;;5.98;92.66;101134.84;5078402;28;20027;-79
2022/01/31 02:15:40;;;;;;;19.33;3.43;;;;;;;5.97;92.84;101135.75;5078903;28;20047;-79
2022/01/31 02:18:06;;;;;;;20.20;3.45;;;;;;;5.98;92.42;101147.84;5079031;28;20024;-79
2022/01/31 02:20:40;;;;;;;19.08;3.40;;;;;;;6.01;91.91;101152.16;5097421;28;20044;-79
2022/01/31 02:23:07;;;;;;;21.27;3.15;;;;;;;6.01;91.97;101137.41;5075588;28;20022;-79
2022/01/31 02:25:33;;;;;;;17.38;3.03;;;;;;;6.01;91.70;101128.75;5079053;28;20055;-79
2022/01/31 02:27:59;;;;;;;17.10;3.10;;;;;;;6.01;91.57;101111.41;5096345;28;20113;-79
2022/01/31 02:30:24;;;;;;;17.70;2.80;;;;;;;6.00;91.62;101111.41;5078719;28;20036;-79
2022/01/31 02:32:50;;;;;;;19.38;3.40;;;;;;;6.00;91.81;101109.66;5078365;28;20056;-79
2022/01/31 02:35:15;;;;;;;22.45;4.07;;;;;;;6.00;91.62;101111.41;5080142;28;20358;-79
2022/01/31 02:37:40;;;;;;;25.27;3.63;;;;;;;5.98;91.41;101111.44;5099638;28;20419;-79
2022/01/31 02:40:07;;;;;;;17.23;3.15;;;;;;;6.00;90.86;101117.47;5080936;28;20044;-79
2022/01/31 02:42:32;;;;;;;16.70;3.22;;;;;;;6.00;90.44;101101.03;5080059;28;20051;-79
2022/01/31 02:44:58;;;;;;;30.02;3.92;;;;;;;5.99;90.23;101099.31;5080831;28;20126;-79
2022/01/31 02:47:26;;;;;;;14.35;2.90;;;;;;;5.97;89.67;101091.53;5062162;28;20186;-79
2022/01/31 02:49:59;;;;;;;14.65;2.60;;;;;;;5.96;89.79;101082.88;5062340;28;20259;-79
2022/01/31 02:52:28;;;;;;;15.63;2.67;;;;;;;5.96;89.37;101080.28;5079843;28;20028;-79
2022/01/31 02:54:53;;;;;;;12.88;2.47;;;;;;;5.96;88.74;101092.41;5061633;28;20074;-79
2022/01/31 02:57:19;;;;;;;12.65;2.33;;;;;;;5.95;88.54;101090.69;5096814;28;20398;-79
2022/01/31 02:59:44;;;;;;;15.25;2.67;;;;;;;5.94;87.96;101088.97;5065436;28;20071;-79
2022/01/31 03:02:09;;;;;;;10.90;2.33;;;;;;;5.91;87.98;101087.28;5065086;28;20327;-79
2022/01/31 03:04:35;;;;;;;8.68;1.80;;;;;;;5.91;87.86;101087.28;5065296;28;20036;-79
2022/01/31 03:07:00;;;;;;;11.68;1.92;;;;;;;5.92;87.46;101091.59;5064985;28;20062;-79
2022/01/31 03:09:26;;;;;;;20.73;2.60;;;;;;;5.95;86.71;101090.69;5081074;28;20047;-79
2022/01/31 03:11:51;;;;;;;17.05;2.47;;;;;;;5.90;86.62;101082.09;5079697;28;20282;-79
2022/01/31 03:14:18;;;;;;;11.65;2.00;;;;;;;5.89;86.82;101088.19;5079550;28;20107;-79
2022/01/31 03:16:46;;;;;;;13.40;1.98;;;;;;;5.86;86.42;101086.50;5094980;28;20063;-79
2022/01/31 03:19:12;;;;;;;16.88;2.40;;;;;;;5.89;86.59;101093.38;5099212;28;20233;-79
2022/01/31 03:21:38;;;;;;;15.15;2.08;;;;;;;5.86;86.47;101077.84;5099975;28;20028;-79
2022/01/31 03:24:04;;;;;;;9.60;1.65;;;;;;;5.84;86.59;101084.78;5099383;28;20046;-79
2022/01/31 03:26:29;;;;;;;14.85;1.95;;;;;;;5.84;86.23;101070.06;5089161;28;20112;-79
2022/01/31 03:28:55;;;;;;;12.73;1.85;;;;;;;5.85;85.50;101079.56;5078796;28;20041;-79
2022/01/31 03:31:21;;;;;;;14.32;2.22;;;;;;;5.86;84.95;101059.66;5062091;28;20033;-79
2022/01/31 03:33:48;;;;;;;20.60;2.85;;;;;;;5.84;85.22;101046.69;5099940;28;20342;-79
2022/01/31 03:36:13;;;;;;;15.57;2.17;;;;;;;5.86;85.08;101044.91;5080264;28;20234;-79
2022/01/31 03:38:41;;;;;;;11.57;2.10;;;;;;;5.86;84.20;101044.91;5081657;28;20060;-79
2022/01/31 03:41:08;;;;;;;14.07;1.85;;;;;;;5.88;84.09;101050.09;5099037;28;20260;-79
2022/01/31 03:43:33;;;;;;;17.67;2.50;;;;;;;5.87;83.80;101036.22;5080666;28;20043;-79
2022/01/31 03:45:58;;;;;;;11.23;2.42;;;;;;;5.84;83.41;101070.06;5064253;28;20080;-79
2022/01/31 03:48:25;;;;;;;18.27;2.13;;;;;;;5.85;83.58;101045.78;5080915;28;20095;-79
2022/01/31 03:50:50;;;;;;;9.70;1.73;;;;;;;5.80;82.84;101046.75;5087661;28;20064;-79
2022/01/31 03:53:15;;;;;;;9.98;1.60;;;;;;;5.80;83.19;101042.41;5081008;28;20044;-79
2022/01/31 03:55:41;;;;;;;37.00;3.40;;;;;;;5.81;83.38;101061.47;5081331;28;20039;-79
2022/01/31 03:58:06;;;;;;;13.35;2.28;;;;;;;5.76;82.39;101020.81;5064098;28;20425;-79
2022/01/31 04:00:32;;;;;;;18.20;2.83;;;;;;;5.76;82.49;101035.56;5080925;28;20032;-79
2022/01/31 04:02:57;;;;;;;12.07;2.03;;;;;;;5.75;82.71;101050.28;5063720;28;20040;-79
2022/01/31 04:05:22;;;;;;;9.45;2.17;;;;;;;5.79;81.86;101025.09;5067533;28;20066;-79
2022/01/31 04:07:48;;;;;;;13.75;2.05;;;;;;;5.77;82.08;101040.72;5098538;28;20464;-79
2022/01/31 04:10:13;;;;;;;14.25;1.85;;;;;;;5.84;81.59;101004.22;5043948;28;20328;-79
2022/01/31 04:12:39;;;;;;;18.13;2.38;;;;;;;5.86;81.19;101003.31;5060714;28;20097;-79
2022/01/31 04:15:05;;;;;;;27.42;3.45;;;;;;;5.87;81.28;101007.63;5060517;28;20228;-79
2022/01/31 04:17:32;;;;;;;10.57;2.95;;;;;;;5.85;81.56;101000.75;5063823;28;20224;-79
2022/01/31 04:19:57;;;;;;;13.85;2.10;;;;;;;5.87;81.24;101006.78;5080060;28;20111;-79
2022/01/31 04:22:25;;;;;;;9.00;1.73;;;;;;;5.86;80.80;101000.72;5080215;28;20032;-79
2022/01/31 04:24:55;;;;;;;10.40;1.95;;;;;;;5.89;80.82;101013.63;5060050;28;20032;-79
2022/01/31 04:27:21;;;;;;;16.40;2.90;;;;;;;5.87;80.28;101005.00;5077963;28;20335;-79
2022/01/31 04:29:48;;;;;;;12.90;2.22;;;;;;;5.85;79.97;101001.59;5077941;28;20048;-79
2022/01/31 04:32:13;;;;;;;12.45;1.80;;;;;;;5.88;79.78;101013.69;5059546;28;20415;-79
2022/01/31 04:34:40;;;;;;;10.32;2.10;;;;;;;5.88;79.21;101019.75;5060288;28;20044;-79
2022/01/31 04:37:06;;;;;;;15.23;3.15;;;;;;;5.89;79.39;101005.00;5077689;28;20284;-79
2022/01/31 04:39:33;;;;;;;11.57;2.05;;;;;;;5.90;79.34;101001.53;5078015;28;20036;-79
2022/01/31 04:41:58;;;;;;;13.07;1.98;;;;;;;5.88;79.35;101040.53;5077541;28;20104;-79
2022/01/31 04:44:24;;;;;;;4.47;1.70;;;;;;;5.90;78.83;101030.97;5093870;28;20028;-79
2022/01/31 04:46:51;;;;;;;11.82;1.98;;;;;;;5.91;78.26;101014.50;5059846;28;20392;-79
2022/01/31 04:49:16;;;;;;;10.18;2.40;;;;;;;5.92;79.22;101013.59;5059952;28;20056;-79
2022/01/31 04:51:42;;;;;;;15.30;2.40;;;;;;;5.92;79.04;101003.19;5077982;28;20028;-79
2022/01/31 04:54:08;;;;;;;17.08;2.50;;;;;;;5.91;79.90;101001.50;5068777;28;20040;-79
2022/01/31 04:56:35;;;;;;;11.73;2.55;;;;;;;5.87;80.75;100978.19;5079637;28;20107;-79
2022/01/31 04:59:01;;;;;;;21.30;3.25;;;;;;;5.83;81.12;101007.72;5079318;28;20036;-79
2022/01/31 05:01:27;;;;;;;11.65;2.10;;;;;;;5.80;81.42;101006.00;5097766;28;20044;-79
2022/01/31 05:03:53;;;;;;;11.82;2.25;;;;;;;5.77;82.04;101012.13;5079873;28;20024;-79
2022/01/31 05:06:25;;;;;;;14.75;2.35;;;;;;;5.73;82.34;101018.28;5069230;28;20055;-79
2022/01/31 05:08:51;;;;;;;10.50;1.95;;;;;;;5.65;83.19;101016.69;5063558;28;20274;-79
2022/01/31 05:11:17;;;;;;;14.85;2.17;;;;;;;5.61;83.51;101035.84;5059400;28;20108;-79
2022/01/31 05:13:42;;;;;;;13.48;2.00;;;;;;;5.55;83.57;101003.03;5059650;28;20095;-79
2022/01/31 05:16:08;;;;;;;13.65;2.22;;;;;;;5.55;83.96;100995.22;5077473;28;20028;-79
2022/01/31 05:18:33;;;;;;;16.02;2.42;;;;;;;5.57;84.00;100993.44;5061530;28;20078;-79
2022/01/31 05:20:59;;;;;;;13.15;2.17;;;;;;;5.56;83.68;101021.16;5077421;28;20104;-79
2022/01/31 05:23:24;;;;;;;11.85;2.28;;;;;;;5.56;83.00;101020.31;5077103;28;20021;-79
2022/01/31 05:25:50;;;;;;;18.40;3.58;;;;;;;5.58;83.08;101013.34;5075660;28;20051;-79
2022/01/31 05:28:15;;;;;;;19.25;3.28;;;;;;;5.61;82.85;101039.28;5062022;28;20546;-79
2022/01/31 05:30:40;;;;;;;15.10;2.15;;;;;;;5.63;81.01;101026.25;5079690;28;20074;-79
2022/01/31 05:33:06;;;;;;;10.38;2.40;;;;;;;5.61;81.04;101013.28;5097321;28;20095;-79
2022/01/31 05:35:32;;;;;;;19.55;2.72;;;;;;;5.59;81.25;101020.25;5076459;28;20031;-79
2022/01/31 05:37:57;;;;;;;22.45;3.13;;;;;;;5.62;80.48;101011.53;5085275;28;20254;-79
2022/01/31 05:40:22;;;;;;;25.05;2.67;;;;;;;5.60;80.61;100995.13;5056535;28;20036;-79
2022/01/31 05:42:48;;;;;;;21.65;3.25;;;;;;;5.62;80.51;100986.44;5058781;28;20074;-79
2022/01/31 05:45:13;;;;;;;14.82;2.58;;;;;;;5.63;80.08;101013.28;5059228;28;20059;-79
2022/01/31 05:47:39;;;;;;;18.83;2.97;;;;;;;5.61;80.21;101015.88;5076958;28;20037;-79
2022/01/31 05:50:06;;;;;;;18.60;2.42;;;;;;;5.60;79.93;100995.13;5076721;28;20077;-79
2022/01/31 05:52:31;;;;;;;19.90;2.85;;;;;;;5.62;80.90;101008.94;5061450;28;20049;-79
2022/01/31 05:54:57;;;;;;;9.77;2.70;;;;;;;5.61;81.14;101007.25;5063957;28;20059;-79
2022/01/31 05:57:23;;;;;;;16.35;2.33;;;;;;;5.58;81.31;100980.44;5086917;28;20445;-79
2022/01/31 05:59:48;;;;;;;12.88;2.17;;;;;;;5.58;81.42;101027.22;5097045;28;20036;-79
2022/01/31 06:02:13;;;;;;;19.10;3.38;;;;;;;5.58;80.88;100993.44;5079332;28;20351;-79
2022/01/31 06:04:39;;;;;;;25.77;3.53;;;;;;;5.59;81.00;100968.28;5052215;28;20367;-79
2022/01/31 06:07:04;;;;;;;21.23;3.17;;;;;;;5.60;79.95;100988.19;5066140;28;20056;-79
2022/01/31 06:09:32;;;;;;;15.40;2.47;;;;;;;5.57;80.31;100998.66;5097857;28;20334;-79
2022/01/31 06:12:00;;;;;;;19.20;2.80;;;;;;;5.63;80.51;101032.31;5100485;28;20119;-79
2022/01/31 06:14:25;;;;;;;20.95;2.95;;;;;;;5.63;80.03;100987.28;5066188;28;20259;-79
2022/01/31 06:16:51;;;;;;;22.85;3.53;;;;;;;5.63;80.49;101003.72;5066301;28;20304;-79
2022/01/31 06:19:16;;;;;;;23.52;2.80;;;;;;;5.60;80.11;100988.19;5083827;28;20074;-79
2022/01/31 06:21:42;;;;;;;18.23;3.80;;;;;;;5.61;80.43;100987.31;5091165;28;20110;-79
2022/01/31 06:24:10;;;;;;;24.27;3.28;;;;;;;5.63;79.99;100977.75;5092892;28;20058;-79
2022/01/31 06:26:36;;;;;;;37.38;4.40;;;;;;;5.61;80.13;100971.72;5101438;28;20039;-79
2022/01/31 06:29:01;;;;;;;25.42;3.75;;;;;;;5.64;79.95;100987.25;5098060;28;20068;-79
2022/01/31 06:31:27;;;;;;;21.25;3.92;;;;;;;5.66;78.93;100982.03;5077146;28;20231;-79
2022/01/31 06:33:53;;;;;;;15.02;2.53;;;;;;;5.69;78.60;100988.00;5098522;28;20055;-79
2022/01/31 06:36:19;;;;;;;20.75;2.88;;;;;;;5.68;78.87;100996.72;5081894;28;20032;-79
2022/01/31 06:38:45;;;;;;;29.13;3.25;;;;;;;5.69;78.78;101008.81;5063734;28;20038;-79
2022/01/31 06:41:11;;;;;;;17.77;3.05;;;;;;;5.69;78.89;101005.34;5099936;28;20050;-79
2022/01/31 06:43:37;;;;;;;19.88;3.08;;;;;;;5.69;78.45;100995.81;5082369;28;20040;-79
2022/01/31 06:46:02;;;;;;;20.38;2.53;;;;;;;5.67;78.85;101005.38;5098929;28;20039;-79
2022/01/31 06:48:28;;;;;;;25.35;3.50;;;;;;;5.68;78.56;101029.66;5079243;28;20089;-79
2022/01/31 06:50:53;;;;;;;17.98;3.50;;;;;;;5.68;79.26;101016.66;5081186;28;20107;-79
2022/01/31 06:53:25;;;;;;;25.58;3.45;;;;;;;5.64;80.01;101023.66;5080540;28;20040;-80
2022/01/31 06:55:51;;;;;;;27.90;5.10;;;;;;;5.59;80.87;101061.84;5067705;28;20050;-79
2022/01/31 06:58:16;;;;;;;21.83;3.08;;;;;;;5.56;80.47;101026.34;5084228;28;20292;-79
2022/01/31 07:00:42;;;;;;;15.07;2.70;;;;;;;5.53;81.45;101026.41;5097637;28;20051;-79
2022/01/31 07:03:10;;;;;;;12.60;2.45;;;;;;;5.51;81.15;101027.31;5090934;28;20343;-79
2022/01/31 07:05:36;;;;;;;22.08;3.58;;;;;;;5.46;81.73;101048.19;5066256;28;20044;-80
2022/01/31 07:08:02;;;;;;;19.67;3.63;;;;;;;5.44;81.73;101039.56;5086026;28;20301;-80
2022/01/31 07:10:28;;;;;;;28.40;3.25;;;;;;;5.43;81.50;101032.63;5088168;28;20319;-80
2022/01/31 07:12:54;;;;;;;19.85;3.28;;;;;;;5.44;81.67;101047.34;5067086;28;20020;-80
2022/01/31 07:15:20;;;;;;;18.58;2.95;;;;;;;5.46;81.90;101055.13;5069164;28;20035;-79
2022/01/31 07:17:46;;;;;;;25.33;3.50;;;;;;;5.42;82.14;101043.94;5095644;28;20224;-80
2022/01/31 07:20:22;;;;;;;19.55;3.25;;;;;;;5.41;82.66;101042.19;5087100;28;20156;-80
2022/01/31 07:23:01;;;;;;;25.27;4.20;;;;;;;5.40;82.43;101048.25;5098563;28;20043;-80
2022/01/31 07:25:36;;;;;;;29.50;3.97;;;;;;;5.44;82.00;101054.28;5098672;28;20044;-79
2022/01/31 07:28:04;;;;;;;30.05;4.00;;;;;;;5.43;81.95;101011.00;5093075;28;20062;-79
2022/01/31 07:30:30;;;;;;;24.75;3.17;;;;;;;5.45;81.76;101032.63;5091954;28;20028;-79
2022/01/31 07:32:55;;;;;;;17.38;3.03;;;;;;;5.46;82.05;101027.41;5079639;28;20389;-79
2022/01/31 07:35:21;;;;;;;21.52;3.83;;;;;;;5.47;82.29;101062.88;5074059;28;20038;-79
2022/01/31 07:37:46;;;;;;;18.98;3.92;;;;;;;5.49;82.21;101037.72;5050033;28;20232;-79
2022/01/31 07:40:12;;;;;;;21.08;2.97;;;;;;;5.46;81.91;101035.19;5053571;28;20090;-79
2022/01/31 07:42:38;;;;;;;21.17;3.28;;;;;;;5.46;81.96;101045.59;5074290;28;20032;-79
2022/01/31 07:45:04;;;;;;;25.15;3.58;;;;;;;5.53;81.40;101054.13;5049198;28;20037;-79
2022/01/31 07:47:29;;;;;;;16.33;3.28;;;;;;;5.55;81.07;101042.84;5054719;28;20047;-79
2022/01/31 07:49:55;;;;;;;22.38;3.05;;;;;;;5.56;80.89;101048.88;5023851;28;20279;-79
2022/01/31 07:52:20;;;;;;;26.38;4.05;;;;;;;5.57;80.48;101055.81;5061511;28;20075;-79
2022/01/31 07:54:46;;;;;;;22.58;4.32;;;;;;;5.61;80.91;101069.59;5050117;28;21538;-79
2022/01/31 07:57:11;;;;;;;22.73;4.03;;;;;;;5.62;80.80;101068.72;5058438;28;20355;-79
2022/01/31 07:59:37;;;;;;;29.88;3.40;;;;;;;5.66;80.55;101091.19;5067433;28;20036;-80
2022/01/31 08:02:02;;;;;;;22.90;3.33;;;;;;;5.66;80.23;101141.41;5032318;28;20052;-80
2022/01/31 08:04:28;;;;;;;22.65;3.55;;;;;;;5.66;79.67;101058.25;5020428;28;20116;-79
2022/01/31 08:06:53;;;;;;;28.45;3.83;;;;;;;5.66;79.32;101049.59;5061023;28;20044;-79
2022/01/31 08:09:19;;;;;;;25.40;4.03;;;;;;;5.69;79.81;101059.94;5047390;28;20419;-79
2022/01/31 08:11:44;;;;;;;17.73;3.60;;;;;;;5.67;80.22;101059.94;5071967;28;20267;-79
2022/01/31 08:14:11;;;;;;;23.67;3.28;;;;;;;5.69;79.94;101075.50;5056604;28;20323;-80
2022/01/31 08:16:38;;;;;;;27.42;4.88;;;;;;;5.70;80.84;101085.91;5061979;28;20041;-80
2022/01/31 08:19:07;;;;;;;20.92;3.85;;;;;;;5.66;82.03;101073.00;5050759;28;20037;-80
2022/01/31 08:21:34;;;;;;;23.20;3.67;;;;;;;5.61;83.01;101109.44;5063294;28;20498;-80
2022/01/31 08:23:59;;;;;;;25.45;4.93;;;;;;;5.55;83.78;101104.34;5070960;28;20040;-80
2022/01/31 08:26:25;;;;;;;26.75;4.35;;;;;;;5.51;84.10;101116.53;5060404;28;20452;-80
2022/01/31 08:28:56;;;;;;;28.35;4.40;;;;;;;5.48;84.51;101110.50;5069683;28;20097;-80
2022/01/31 08:31:28;;;;;;;23.02;3.92;;;;;;;5.45;84.55;101111.41;5081096;28;20158;-80
2022/01/31 08:36:24;;;;;;;23.23;3.30;;;;;;;5.47;83.03;101124.38;5082378;28;20029;-80
2022/01/31 08:38:50;;;;;;;21.48;3.63;;;;;;;5.48;82.37;101128.69;5061128;28;20328;-80
2022/01/31 08:41:16;;;;;;;22.30;3.50;;;;;;;5.49;81.90;101133.00;5062733;28;20039;-80
2022/01/31 08:43:42;;;;;;;20.52;3.35;;;;;;;5.51;81.88;101147.69;5085889;28;20048;-80
2022/01/31 08:46:09;;;;;;;25.10;3.72;;;;;;;5.52;82.16;101144.19;5068132;28;20251;-80
2022/01/31 08:48:35;;;;;;;34.55;4.43;;;;;;;5.53;82.18;101127.75;5078202;28;20077;-80
2022/01/31 08:51:02;;;;;;;32.53;4.97;;;;;;;5.55;82.10;101125.97;5086155;28;20107;-80
2022/01/31 08:53:28;;;;;;;22.08;3.13;;;;;;;5.53;82.01;101135.53;5085056;28;20028;-80
2022/01/31 08:55:58;;;;;;;31.38;4.72;;;;;;;5.56;81.16;101137.22;5063631;28;20050;-80
2022/01/31 08:58:23;;;;;;;27.98;3.25;;;;;;;5.58;82.09;101136.34;5086761;28;20254;-80
2022/01/31 09:00:57;;;;;;;36.38;4.82;;;;;;;5.58;81.27;101138.94;5090348;28;20036;-80
2022/01/31 09:03:40;;;;;;;27.00;4.50;;;;;;;5.58;81.51;101144.13;5071367;28;20047;-80
2022/01/31 09:06:08;;;;;;;30.27;4.38;;;;;;;5.59;81.79;101147.56;5087755;28;20032;-80
2022/01/31 09:08:34;;;;;;;31.15;3.95;;;;;;;5.60;82.36;101154.47;5079363;28;20027;-80
2022/01/31 09:10:59;;;;;;;39.33;5.80;;;;;;;5.59;82.72;101155.38;5067183;28;20112;-80
2022/01/31 09:13:25;;;;;;;34.67;4.20;;;;;;;5.57;82.61;101129.41;5066366;28;20040;-79
2022/01/31 09:15:51;;;;;;;30.15;5.90;;;;;;;5.60;81.56;101148.41;5065061;28;20032;-79
2022/01/31 09:18:16;;;;;;;29.35;5.28;;;;;;;5.61;81.25;101155.34;5077841;28;20220;-79
2022/01/31 09:20:42;;;;;;;34.50;4.60;;;;;;;5.61;80.78;101178.72;5068298;28;20066;-79
2022/01/31 09:23:08;;;;;;;24.73;4.75;;;;;;;5.61;80.16;101145.81;5046473;28;20040;-81
2022/01/31 09:25:34;;;;;;;31.50;5.03;;;;;;;5.63;79.25;101184.75;5079101;28;20028;-79
2022/01/31 09:28:02;;;;;;;38.35;5.55;;;;;;;5.63;77.94;101159.63;5064651;28;20067;-79
2022/01/31 09:30:28;;;;;;;31.23;4.90;;;;;;;5.66;77.73;101169.13;5065542;28;20324;-79
2022/01/31 09:32:55;;;;;;;27.52;4.85;;;;;;;5.66;77.80;101169.13;5069001;28;20040;-79
2022/01/31 09:35:21;;;;;;;44.58;5.72;;;;;;;5.67;76.49;101179.47;5068595;28;20028;-79
2022/01/31 09:37:49;;;;;;;32.50;4.75;;;;;;;5.67;76.69;101169.09;5089257;28;20062;-79
2022/01/31 09:40:19;;;;;;;31.65;4.85;;;;;;;5.67;77.06;101155.25;5066221;28;20041;-79
2022/01/31 09:50:57;;;;;;;33.42;4.80;;;;;;;5.72;72.44;101162.09;5084733;28;20044;-79
2022/01/31 09:53:24;;;;;;;35.53;4.85;;;;;;;5.74;73.32;101167.25;5096410;28;20110;-79
2022/01/31 09:55:49;;;;;;;28.25;4.45;;;;;;;5.75;73.43;101153.41;5057984;28;20334;-79
2022/01/31 09:58:14;;;;;;;31.08;4.28;;;;;;;5.77;72.70;101138.63;5060785;28;20047;-79
2022/01/31 10:00:40;;;;;;;34.47;3.75;;;;;;;5.80;74.32;101216.53;5046281;28;20063;-79
2022/01/31 10:03:10;;;;;;;30.10;4.72;;;;;;;5.80;75.34;101215.69;5079674;28;20040;-79
2022/01/31 10:05:36;;;;;;;30.38;4.75;;;;;;;5.82;76.18;101201.81;5059548;28;20046;-79
2022/01/31 10:08:11;;;;;;;30.13;4.82;;;;;;;5.80;76.43;101231.28;5064080;28;20060;-79
2022/01/31 10:10:40;;;;;;;27.67;4.60;;;;;;;5.75;76.98;101242.63;5084954;28;20054;-79
2022/01/31 10:16:29;;;;;;;29.48;4.32;;;;;;;5.69;78.33;101317.19;5082162;28;20310;-79
2022/01/31 10:19:16;;;;;;;29.50;4.45;;;;;;;5.69;78.17;101297.25;5064931;28;20100;-79
2022/01/31 10:21:59;;;;;;;39.75;5.13;;;;;;;5.70;77.68;101273.00;5092056;28;20472;-79
2022/01/31 10:24:27;;;;;;;35.85;5.65;;;;;;;5.70;78.14;101278.19;5087080;28;20343;-79
2022/01/31 10:26:52;;;;;;;42.95;5.63;;;;;;;5.70;78.77;101322.38;5077592;28;20085;-79
2022/01/31 10:29:20;;;;;;;41.53;5.80;;;;;;;5.72;76.83;101325.81;5059730;28;20340;-79
2022/01/31 10:32:01;;;;;;;37.17;6.25;;;;;;;5.75;76.60;101318.00;5062298;28;20027;-79
2022/01/31 10:34:29;;;;;;;33.10;5.43;;;;;;;5.75;76.68;101298.94;5096187;28;20427;-79
2022/01/31 10:37:01;;;;;;;35.30;5.55;;;;;;;5.73;76.44;101292.88;5080862;28;20050;-79
2022/01/31 10:51:26;;;;;;;34.30;4.97;;;;;;;5.73;77.26;101332.75;5080491;28;20051;-79
2022/01/31 10:53:57;;;;;;;38.08;5.80;;;;;;;5.72;77.00;101292.03;5092713;28;20095;-79
2022/01/31 10:56:23;;;;;;;29.05;5.82;;;;;;;5.71;77.41;101318.91;5080775;28;20024;-79
2022/01/31 10:59:00;;;;;;;34.08;5.47;;;;;;;5.73;76.85;101340.53;5090627;28;20372;-79
2022/01/31 11:01:26;;;;;;;46.92;6.50;;;;;;;5.73;76.90;101290.28;5083519;28;20036;-79
2022/01/31 11:03:54;;;;;;;53.15;6.43;;;;;;;5.72;76.17;101335.34;5086816;28;20270;-79
2022/01/31 11:06:20;;;;;;;34.10;5.85;;;;;;;5.74;74.90;101350.03;5084374;28;20032;-79
2022/01/31 11:08:47;;;;;;;38.15;5.95;;;;;;;5.76;74.81;101366.47;5078473;28;20033;-79
2022/01/31 11:11:13;;;;;;;40.47;5.63;;;;;;;5.77;74.36;101336.16;5062441;28;20044;-79
2022/01/31 11:13:39;;;;;;;29.30;4.32;;;;;;;5.78;75.27;101332.66;5084165;28;20021;-79
2022/01/31 11:16:06;;;;;;;39.60;6.35;;;;;;;5.78;75.74;101345.66;5079387;28;20044;-79
2022/01/31 11:18:34;;;;;;;40.20;4.75;;;;;;;5.77;75.23;101347.41;5060751;28;20098;-79
2022/01/31 11:21:05;;;;;;;46.90;6.28;;;;;;;5.69;76.75;101354.44;5060767;28;20023;-79
2022/01/31 11:23:37;;;;;;;47.78;5.78;;;;;;;5.63;77.39;101387.44;5083408;28;20032;-79
2022/01/31 11:26:06;;;;;;;35.83;5.38;;;;;;;5.58;78.63;101411.75;5080357;28;20093;-79
2022/01/31 11:28:34;;;;;;;36.90;6.65;;;;;;;5.53;78.59;101397.94;5079955;28;20044;-79
2022/01/31 11:31:01;;;;;;;27.98;5.32;;;;;;;5.48;79.63;101389.34;5052472;28;20032;-79
2022/01/31 11:33:28;;;;;;;31.52;5.80;;;;;;;5.42;80.26;101397.19;5078639;28;20044;-79
2022/01/31 11:35:54;;;;;;;26.83;5.55;;;;;;;5.41;80.19;101424.03;5090743;28;20036;-79
2022/01/31 11:38:21;;;;;;;36.03;4.88;;;;;;;5.33;79.98;101433.63;5071669;28;20039;-79
2022/01/31 11:40:47;;;;;;;40.03;5.50;;;;;;;5.30;81.25;101411.16;5057797;28;20335;-79
2022/01/31 11:43:14;;;;;;;42.85;6.95;;;;;;;5.27;81.59;101403.38;5079717;28;20031;-79
2022/01/31 11:45:41;;;;;;;33.03;5.05;;;;;;;5.22;81.77;101396.53;5061752;28;20040;-79
2022/01/31 11:48:24;;;;;;;39.50;5.35;;;;;;;5.23;82.01;101419.88;5061227;28;20109;-79